page 4807 of 1011776 registered users

eBook PostsUsers

  1. 0laura1pin registered @ 2012-12-06 20:49:23, last login @ 2012-12-06 20:49:23
  2. 0coil7moat registered @ 2012-12-06 20:50:38, last login @ 2012-12-06 20:50:38
  3. 0fanfeet68 registered @ 2012-12-06 20:51:06, last login @ 2012-12-06 20:51:06
  4. 0nephew56comic registered @ 2012-12-06 20:51:59, last login @ 2012-12-06 20:51:59
  5. 0clefbeggar93 registered @ 2012-12-06 20:54:37, last login @ 2012-12-06 20:54:37
  6. 0skiingramie56 registered @ 2012-12-06 20:55:25, last login @ 2012-12-06 20:55:25
  7. 0poison28nest registered @ 2012-12-06 20:55:48, last login @ 2012-12-06 20:55:48
  8. 0pumpguide05 registered @ 2012-12-06 20:58:06, last login @ 2012-12-06 20:58:06
  9. 0tempo4litter registered @ 2012-12-06 20:58:58, last login @ 2012-12-06 20:58:58
  10. 0golfflax28 registered @ 2012-12-06 20:59:51, last login @ 2012-12-06 20:59:51
  11. 0chord98mind registered @ 2012-12-06 20:59:59, last login @ 2012-12-06 20:59:59
  12. 0puma1column registered @ 2012-12-06 21:01:55, last login @ 2012-12-06 21:26:57
  13. 0drugsoil3 registered @ 2012-12-06 21:04:36, last login @ 2012-12-06 21:04:36
  14. 0peacestudy55 registered @ 2012-12-06 21:05:13, last login @ 2012-12-06 21:05:13
  15. 0bell40beaver registered @ 2012-12-06 21:05:44, last login @ 2012-12-06 21:31:07
  16. 0raven9daniel registered @ 2012-12-06 21:06:41, last login @ 2012-12-06 21:50:55
  17. 0bull7vinyl registered @ 2012-12-06 21:07:05, last login @ 2012-12-06 21:07:05
  18. 0RichardHMcLin registered @ 2012-12-06 21:07:34, last login @ 2012-12-06 21:15:33
  19. 0pimple67cougar registered @ 2012-12-06 21:07:48, last login @ 2012-12-06 21:07:48
  20. 0dime9random registered @ 2012-12-06 21:09:05, last login @ 2012-12-06 21:09:05
  21. 0beggar8greece registered @ 2012-12-06 21:09:18, last login @ 2012-12-06 21:09:18
  22. 0denim90quart registered @ 2012-12-06 21:10:00, last login @ 2012-12-06 21:10:00
  23. 0smell4quilt registered @ 2012-12-06 21:10:08, last login @ 2012-12-06 21:10:08
  24. 0trunkjar35 registered @ 2012-12-06 21:10:08, last login @ 2012-12-06 21:10:08
  25. 0badge01twig registered @ 2012-12-06 21:10:12, last login @ 2012-12-06 21:10:12
  26. 0babytune69 registered @ 2012-12-06 21:10:23, last login @ 2012-12-06 21:10:23
  27. 0beggar09trowel registered @ 2012-12-06 21:11:34, last login @ 2012-12-06 21:11:34
  28. 0puppyloss70 registered @ 2012-12-06 21:12:35, last login @ 2012-12-06 21:12:35
  29. 0soildancer39 registered @ 2012-12-06 21:12:54, last login @ 2012-12-06 22:00:28
  30. 0khalbouza registered @ 2012-12-06 21:14:07, last login @ 2012-12-06 21:14:07
  31. 0leoquilt27 registered @ 2012-12-06 21:18:10, last login @ 2012-12-06 21:18:10
  32. 0dead0rotate registered @ 2012-12-06 21:18:42, last login @ 2012-12-06 21:18:42
  33. 0musclefight3 registered @ 2012-12-06 21:19:01, last login @ 2012-12-06 21:19:01
  34. 0nephew33east registered @ 2012-12-06 21:19:45, last login @ 2012-12-06 21:19:45
  35. 0act16pilot registered @ 2012-12-06 21:20:03, last login @ 2012-12-06 21:20:03
  36. 0flood4atom registered @ 2012-12-06 21:20:06, last login @ 2012-12-06 21:20:06
  37. 0block6drum registered @ 2012-12-06 21:24:03, last login @ 2012-12-06 21:24:03
  38. 0latexchange54 registered @ 2012-12-06 21:24:07, last login @ 2012-12-06 21:24:07
  39. 0jeff3chair registered @ 2012-12-06 21:25:08, last login @ 2012-12-06 21:25:08
  40. 0jetnoodle64 registered @ 2012-12-06 21:26:07, last login @ 2012-12-06 21:26:07
  41. 0dead0cello registered @ 2012-12-06 21:26:16, last login @ 2012-12-06 21:26:16
  42. 0sunday79hub registered @ 2012-12-06 21:27:26, last login @ 2012-12-06 21:27:26
  43. 0redgirl39 registered @ 2012-12-06 21:27:30, last login @ 2012-12-06 21:27:30
  44. 0faouzi registered @ 2012-12-06 21:28:08, last login @ 2012-12-06 21:32:33
  45. 0jaguar4egypt registered @ 2012-12-06 21:28:59, last login @ 2012-12-06 21:28:59
  46. 0clavecatsup35 registered @ 2012-12-06 21:29:05, last login @ 2012-12-06 21:29:05
  47. 0box62birch registered @ 2012-12-06 21:29:08, last login @ 2012-12-06 21:29:08
  48. 0writeryogurt72 registered @ 2012-12-06 21:29:48, last login @ 2012-12-06 21:43:19
  49. 0sphereart8 registered @ 2012-12-06 21:29:58, last login @ 2012-12-06 21:29:58
  50. 0grease06dew registered @ 2012-12-06 21:30:09, last login @ 2012-12-06 21:30:09
  51. 0dockegypt5 registered @ 2012-12-06 21:30:38, last login @ 2012-12-06 21:30:38
  52. 0weeder71camel registered @ 2012-12-06 21:31:32, last login @ 2012-12-06 21:31:32
  53. 0temper24skate registered @ 2012-12-06 21:32:07, last login @ 2012-12-06 21:32:07
  54. 0blue62birch registered @ 2012-12-06 21:32:19, last login @ 2012-12-06 21:32:19
  55. 0fine76bath registered @ 2012-12-06 21:32:38, last login @ 2012-12-06 21:32:38
  56. 0tellercarp11 registered @ 2012-12-06 21:35:17, last login @ 2012-12-06 21:35:17
  57. 0yoke7taurus registered @ 2012-12-06 21:38:21, last login @ 2012-12-06 21:38:21
  58. 0blue89sofa registered @ 2012-12-06 21:39:28, last login @ 2012-12-06 21:39:28
  59. 0alejandro234 registered @ 2012-12-06 21:40:30, last login @ 2012-12-06 21:40:30
  60. 0catsup2peace registered @ 2012-12-06 21:40:49, last login @ 2012-12-06 21:40:49
  61. 0pencil3crowd registered @ 2012-12-06 21:44:57, last login @ 2012-12-06 21:44:57
  62. 0pasta3maid registered @ 2012-12-06 21:45:12, last login @ 2012-12-06 21:45:12
  63. 0start55beach registered @ 2012-12-06 21:47:01, last login @ 2012-12-06 21:47:01
  64. 0claveclock01 registered @ 2012-12-06 21:47:23, last login @ 2012-12-06 21:47:23
  65. 0decksealer125 registered @ 2012-12-06 21:51:00, last login @ 2012-12-06 21:51:00
  66. 0browear1 registered @ 2012-12-06 21:53:47, last login @ 2012-12-06 21:53:47
  67. 0slipspider46 registered @ 2012-12-06 21:53:55, last login @ 2012-12-06 21:53:55
  68. 0agenda26egypt registered @ 2012-12-06 21:54:21, last login @ 2012-12-06 21:54:21
  69. 0cartrugby9 registered @ 2012-12-06 21:57:59, last login @ 2012-12-06 21:57:59
  70. 0deskalto88 registered @ 2012-12-06 21:57:59, last login @ 2012-12-06 21:57:59
  71. 0dinghycattle0 registered @ 2012-12-06 21:58:15, last login @ 2012-12-06 21:58:15
  72. 0fridgeroast30 registered @ 2012-12-06 21:58:41, last login @ 2012-12-06 21:58:41
  73. 0deal78cactus registered @ 2012-12-06 21:59:15, last login @ 2012-12-06 21:59:15
  74. 0woman6cold registered @ 2012-12-06 22:00:56, last login @ 2012-12-06 22:00:56
  75. 0donkey1ring registered @ 2012-12-06 22:01:44, last login @ 2012-12-06 22:01:44
  76. 0lung68place registered @ 2012-12-06 22:04:39, last login @ 2012-12-06 22:04:39
  77. 0Charlesjh registered @ 2012-12-06 22:05:41, last login @ 2012-12-06 22:05:41
  78. 0yacht45makeup registered @ 2012-12-06 22:05:50, last login @ 2012-12-06 22:05:50
  79. 0mittenbait0 registered @ 2012-12-06 22:06:06, last login @ 2012-12-06 22:06:06
  80. 0suit32yak registered @ 2012-12-06 22:06:41, last login @ 2012-12-06 22:06:41
  81. 0davidshield35 registered @ 2012-12-06 22:06:42, last login @ 2012-12-06 22:06:42
  82. 0jailoval65 registered @ 2012-12-06 22:07:12, last login @ 2012-12-06 22:07:12
  83. 0testbrake0 registered @ 2012-12-06 22:07:17, last login @ 2012-12-06 22:07:17
  84. 0bridge18girl registered @ 2012-12-06 22:08:44, last login @ 2012-12-06 22:08:44
  85. 0swordyard22 registered @ 2012-12-06 22:09:32, last login @ 2012-12-06 22:09:32
  86. 0kevinng1018 registered @ 2012-12-06 22:10:36, last login @ 2012-12-06 22:12:23
  87. 0bed3arrow registered @ 2012-12-06 22:10:52, last login @ 2012-12-06 22:10:52
  88. 0join30ping registered @ 2012-12-06 22:13:25, last login @ 2012-12-06 22:13:25
  89. 0stream72column registered @ 2012-12-06 22:13:32, last login @ 2012-12-06 22:13:32
  90. 0knitteddresses55 registered @ 2012-12-06 22:13:56, last login @ 2012-12-06 22:42:19
  91. 0Vilambraend69hai registered @ 2012-12-06 22:14:22, last login @ 2012-12-06 22:14:22
  92. 0sprout5result registered @ 2012-12-06 22:14:50, last login @ 2012-12-06 22:14:50
  93. 0thumbviolin4 registered @ 2012-12-06 22:15:33, last login @ 2012-12-06 22:15:33
  94. 0gts78 registered @ 2012-12-06 22:15:48, last login @ 2012-12-06 22:15:48
  95. 0jeffalloy3 registered @ 2012-12-06 22:16:43, last login @ 2012-12-06 22:16:43
  96. 0quartz4office registered @ 2012-12-06 22:17:36, last login @ 2012-12-06 22:17:36
  97. 0liquid8flight registered @ 2012-12-06 22:17:37, last login @ 2012-12-06 22:17:37
  98. 0offer2crime registered @ 2012-12-06 22:18:02, last login @ 2012-12-06 22:18:02
  99. 0flattennis91 registered @ 2012-12-06 22:18:09, last login @ 2012-12-06 22:18:09
  100. 0plough03case registered @ 2012-12-06 22:18:13, last login @ 2012-12-06 22:54:27
  101. 0flax1fiber registered @ 2012-12-06 22:19:48, last login @ 2012-12-06 22:19:48

More...

[4817] [4816] [4815] [4814] [4813] [4812] [4811] [4810] [4809] [4808] [4807] [4806] [4805] [4804] [4803] [4802] [4801] [4800] [4799] [4798] ...[1]
Back to Top